sensor_id;sensor_type;location;lat;lon;timestamp;pressure;altitude;pressure_sealevel;temperature;humidity
74372;BME280;62885;51.374;6.170;2023-05-10T00:01:26;100503.31;;;13.35;100.00
74372;BME280;62885;51.374;6.170;2023-05-10T00:03:52;100500.19;;;13.40;100.00
74372;BME280;62885;51.374;6.170;2023-05-10T00:06:17;100506.72;;;13.37;100.00
74372;BME280;62885;51.374;6.170;2023-05-10T00:08:44;100504.56;;;13.31;100.00
74372;BME280;62885;51.374;6.170;2023-05-10T00:11:10;100507.13;;;13.33;100.00
74372;BME280;62885;51.374;6.170;2023-05-10T00:13:36;100497.31;;;13.22;100.00
74372;BME280;62885;51.374;6.170;2023-05-10T00:16:01;100503.59;;;13.32;100.00
74372;BME280;62885;51.374;6.170;2023-05-10T00:18:26;100510.94;;;13.30;100.00
74372;BME280;62885;51.374;6.170;2023-05-10T00:20:52;100513.38;;;13.33;100.00
74372;BME280;62885;51.374;6.170;2023-05-10T00:23:17;100503.59;;;13.32;100.00
74372;BME280;62885;51.374;6.170;2023-05-10T00:25:43;100498.91;;;13.34;100.00
74372;BME280;62885;51.374;6.170;2023-05-10T00:28:08;100496.22;;;13.25;100.00
74372;BME280;62885;51.374;6.170;2023-05-10T00:30:34;100506.28;;;13.32;100.00
74372;BME280;62885;51.374;6.170;2023-05-10T00:32:59;100504.03;;;13.37;100.00
74372;BME280;62885;51.374;6.170;2023-05-10T00:35:25;100506.28;;;13.32;100.00
74372;BME280;62885;51.374;6.170;2023-05-10T00:37:51;100479.78;;;13.18;100.00
74372;BME280;62885;51.374;6.170;2023-05-10T00:40:16;100499.88;;;13.24;100.00
74372;BME280;62885;51.374;6.170;2023-05-10T00:42:42;100503.44;;;13.24;100.00
74372;BME280;62885;51.374;6.170;2023-05-10T00:45:07;100491.94;;;13.22;100.00
74372;BME280;62885;51.374;6.170;2023-05-10T00:47:34;100502.31;;;13.27;100.00
74372;BME280;62885;51.374;6.170;2023-05-10T00:50:00;100500.47;;;13.27;100.00
74372;BME280;62885;51.374;6.170;2023-05-10T00:52:29;100500.31;;;13.19;100.00
74372;BME280;62885;51.374;6.170;2023-05-10T00:54:55;100497.91;;;13.26;100.00
74372;BME280;62885;51.374;6.170;2023-05-10T00:57:24;100510.38;;;13.27;100.00
74372;BME280;62885;51.374;6.170;2023-05-10T00:59:50;100499.88;;;13.24;100.00
74372;BME280;62885;51.374;6.170;2023-05-10T01:02:15;100500.00;;;13.22;100.00
74372;BME280;62885;51.374;6.170;2023-05-10T01:04:41;100496.91;;;13.17;100.00
74372;BME280;62885;51.374;6.170;2023-05-10T01:07:06;100496.22;;;13.15;100.00
74372;BME280;62885;51.374;6.170;2023-05-10T01:09:32;100506.53;;;13.20;100.00
74372;BME280;62885;51.374;6.170;2023-05-10T01:11:58;100498.03;;;13.14;100.00
74372;BME280;62885;51.374;6.170;2023-05-10T01:14:25;100502.44;;;13.15;100.00
74372;BME280;62885;51.374;6.170;2023-05-10T01:16:52;100499.75;;;13.15;100.00
74372;BME280;62885;51.374;6.170;2023-05-10T01:19:28;100498.59;;;13.18;100.00
74372;BME280;62885;51.374;6.170;2023-05-10T01:33:19;100491.47;;;13.07;100.00
74372;BME280;62885;51.374;6.170;2023-05-10T01:36:08;100497.19;;;13.14;100.00
74372;BME280;62885;51.374;6.170;2023-05-10T01:38:44;100500.00;;;13.12;100.00
74372;BME280;62885;51.374;6.170;2023-05-10T01:41:25;100498.03;;;13.14;100.00
74372;BME280;62885;51.374;6.170;2023-05-10T01:44:20;100501.59;;;13.15;100.00
74372;BME280;62885;51.374;6.170;2023-05-10T01:46:53;100493.50;;;13.15;100.00
74372;BME280;62885;51.374;6.170;2023-05-10T01:49:25;100502.13;;;13.19;100.00
74372;BME280;62885;51.374;6.170;2023-05-10T01:51:54;100497.63;;;13.19;100.00
74372;BME280;62885;51.374;6.170;2023-05-10T01:54:23;100506.25;;;13.23;100.00
74372;BME280;62885;51.374;6.170;2023-05-10T01:56:54;100501.59;;;13.15;100.00
74372;BME280;62885;51.374;6.170;2023-05-10T01:59:22;100497.72;;;13.08;100.00
74372;BME280;62885;51.374;6.170;2023-05-10T02:01:50;100509.34;;;13.18;100.00
74372;BME280;62885;51.374;6.170;2023-05-10T02:04:17;100508.91;;;13.13;100.00
74372;BME280;62885;51.374;6.170;2023-05-10T02:06:45;100496.84;;;13.07;100.00
74372;BME280;62885;51.374;6.170;2023-05-10T02:09:14;100507.81;;;13.15;100.00
74372;BME280;62885;51.374;6.170;2023-05-10T02:11:43;100506.22;;;13.13;100.00
74372;BME280;62885;51.374;6.170;2023-05-10T02:14:10;100508.78;;;13.14;100.00
74372;BME280;62885;51.374;6.170;2023-05-10T02:16:36;100509.91;;;13.12;100.00
74372;BME280;62885;51.374;6.170;2023-05-10T02:19:03;100509.91;;;13.12;100.00
74372;BME280;62885;51.374;6.170;2023-05-10T02:21:30;100505.34;;;13.03;100.00
74372;BME280;62885;51.374;6.170;2023-05-10T02:23:57;100502.22;;;13.07;100.00
74372;BME280;62885;51.374;6.170;2023-05-10T02:26:23;100510.41;;;13.06;100.00
74372;BME280;62885;51.374;6.170;2023-05-10T02:28:50;100510.00;;;13.10;100.00
74372;BME280;62885;51.374;6.170;2023-05-10T02:31:17;100506.63;;;13.08;100.00
74372;BME280;62885;51.374;6.170;2023-05-10T02:33:44;100508.44;;;13.08;100.00
74372;BME280;62885;51.374;6.170;2023-05-10T02:36:11;100514.69;;;13.08;100.00
74372;BME280;62885;51.374;6.170;2023-05-10T02:38:38;100507.91;;;13.04;100.00
74372;BME280;62885;51.374;6.170;2023-05-10T02:41:05;100504.63;;;13.10;100.00
74372;BME280;62885;51.374;6.170;2023-05-10T02:43:32;100510.63;;;13.14;100.00
74372;BME280;62885;51.374;6.170;2023-05-10T02:45:58;100507.09;;;13.13;100.00
74372;BME280;62885;51.374;6.170;2023-05-10T02:48:24;100519.84;;;13.21;100.00
74372;BME280;62885;51.374;6.170;2023-05-10T02:50:50;100526.34;;;13.19;100.00
74372;BME280;62885;51.374;6.170;2023-05-10T02:53:23;100521.69;;;13.21;100.00
74372;BME280;62885;51.374;6.170;2023-05-10T02:55:51;100521.97;;;13.27;100.00
74372;BME280;62885;51.374;6.170;2023-05-10T02:58:17;100522.13;;;13.26;100.00
74372;BME280;62885;51.374;6.170;2023-05-10T03:00:44;100526.63;;;13.25;100.00
74372;BME280;62885;51.374;6.170;2023-05-10T03:03:13;100517.59;;;13.26;100.00
74372;BME280;62885;51.374;6.170;2023-05-10T03:05:42;100526.06;;;13.22;100.00
74372;BME280;62885;51.374;6.170;2023-05-10T03:08:07;100524.81;;;13.26;100.00
74372;BME280;62885;51.374;6.170;2023-05-10T03:10:41;100515.44;;;13.20;100.00
74372;BME280;62885;51.374;6.170;2023-05-10T03:13:29;100512.91;;;13.19;100.00
74372;BME280;62885;51.374;6.170;2023-05-10T03:16:12;100528.06;;;13.29;100.00
74372;BME280;62885;51.374;6.170;2023-05-10T03:18:55;100530.19;;;13.26;100.00
74372;BME280;62885;51.374;6.170;2023-05-10T03:21:22;100536.41;;;13.26;100.00
74372;BME280;62885;51.374;6.170;2023-05-10T03:23:58;100525.66;;;13.26;100.00
74372;BME280;62885;51.374;6.170;2023-05-10T03:26:26;100515.44;;;13.20;100.00
74372;BME280;62885;51.374;6.170;2023-05-10T03:28:52;100528.34;;;13.26;100.00
74372;BME280;62885;51.374;6.170;2023-05-10T03:31:18;100527.38;;;13.27;100.00
74372;BME280;62885;51.374;6.170;2023-05-10T03:33:48;100543.75;;;13.34;100.00
74372;BME280;62885;51.374;6.170;2023-05-10T03:36:13;100541.25;;;13.32;100.00
74372;BME280;62885;51.374;6.170;2023-05-10T03:38:39;100549.56;;;13.29;100.00
74372;BME280;62885;51.374;6.170;2023-05-10T03:41:04;100546.75;;;13.31;100.00
74372;BME280;62885;51.374;6.170;2023-05-10T03:43:30;100546.03;;;13.29;100.00
74372;BME280;62885;51.374;6.170;2023-05-10T03:45:55;100543.75;;;13.24;100.00
74372;BME280;62885;51.374;6.170;2023-05-10T03:48:20;100550.53;;;13.28;100.00
74372;BME280;62885;51.374;6.170;2023-05-10T03:50:46;100551.28;;;13.30;100.00
74372;BME280;62885;51.374;6.170;2023-05-10T03:53:11;100541.50;;;13.29;100.00
74372;BME280;62885;51.374;6.170;2023-05-10T03:55:37;100542.63;;;13.27;100.00
74372;BME280;62885;51.374;6.170;2023-05-10T03:58:02;100554.09;;;13.29;100.00
74372;BME280;62885;51.374;6.170;2023-05-10T04:00:28;100550.97;;;13.24;100.00
74372;BME280;62885;51.374;6.170;2023-05-10T04:02:53;100552.66;;;13.25;100.00
74372;BME280;62885;51.374;6.170;2023-05-10T04:05:22;100556.47;;;13.22;100.00
74372;BME280;62885;51.374;6.170;2023-05-10T04:07:47;100551.94;;;13.23;100.00
74372;BME280;62885;51.374;6.170;2023-05-10T04:10:14;100552.25;;;13.20;100.00
74372;BME280;62885;51.374;6.170;2023-05-10T04:12:41;100550.22;;;13.12;100.00
74372;BME280;62885;51.374;6.170;2023-05-10T04:15:07;100543.09;;;13.11;100.00
74372;BME280;62885;51.374;6.170;2023-05-10T04:17:33;100565.69;;;13.20;100.00
74372;BME280;62885;51.374;6.170;2023-05-10T04:19:58;100561.16;;;13.20;100.00
74372;BME280;62885;51.374;6.170;2023-05-10T04:22:23;100561.16;;;13.20;100.00
74372;BME280;62885;51.374;6.170;2023-05-10T04:24:51;100556.31;;;13.14;100.00
74372;BME280;62885;51.374;6.170;2023-05-10T04:27:17;100563.84;;;13.20;100.00
74372;BME280;62885;51.374;6.170;2023-05-10T04:29:42;100567.38;;;13.21;100.00
74372;BME280;62885;51.374;6.170;2023-05-10T04:32:08;100568.78;;;13.15;100.00
74372;BME280;62885;51.374;6.170;2023-05-10T04:34:36;100562.13;;;13.19;100.00
74372;BME280;62885;51.374;6.170;2023-05-10T04:37:01;100572.88;;;13.19;100.00
74372;BME280;62885;51.374;6.170;2023-05-10T04:39:26;100569.34;;;13.19;100.00
74372;BME280;62885;51.374;6.170;2023-05-10T04:41:52;100565.69;;;13.20;100.00
74372;BME280;62885;51.374;6.170;2023-05-10T04:44:18;100573.19;;;13.16;100.00
74372;BME280;62885;51.374;6.170;2023-05-10T04:46:43;100560.38;;;13.08;100.00
74372;BME280;62885;51.374;6.170;2023-05-10T04:49:09;100557.81;;;13.07;100.00
74372;BME280;62885;51.374;6.170;2023-05-10T04:51:34;100568.63;;;13.16;100.00
74372;BME280;62885;51.374;6.170;2023-05-10T04:53:59;100570.31;;;13.18;100.00
74372;BME280;62885;51.374;6.170;2023-05-10T04:56:25;100569.63;;;13.15;100.00
74372;BME280;62885;51.374;6.170;2023-05-10T04:58:51;100569.91;;;13.12;100.00
74372;BME280;62885;51.374;6.170;2023-05-10T05:01:16;100566.78;;;13.17;100.00
74372;BME280;62885;51.374;6.170;2023-05-10T05:03:42;100567.94;;;13.14;100.00
74372;BME280;62885;51.374;6.170;2023-05-10T05:06:07;100571.06;;;13.20;100.00
74372;BME280;62885;51.374;6.170;2023-05-10T05:08:33;100572.75;;;13.21;100.00
74372;BME280;62885;51.374;6.170;2023-05-10T05:10:58;100569.47;;;13.17;100.00
74372;BME280;62885;51.374;6.170;2023-05-10T05:13:24;100577.28;;;13.20;100.00
74372;BME280;62885;51.374;6.170;2023-05-10T05:15:49;100586.91;;;13.23;100.00
74372;BME280;62885;51.374;6.170;2023-05-10T05:18:15;100582.38;;;13.23;100.00
74372;BME280;62885;51.374;6.170;2023-05-10T05:20:40;100585.06;;;13.23;100.00
74372;BME280;62885;51.374;6.170;2023-05-10T05:23:06;100594.41;;;13.29;100.00
74372;BME280;62885;51.374;6.170;2023-05-10T05:25:31;100590.59;;;13.22;100.00
74372;BME280;62885;51.374;6.170;2023-05-10T05:27:57;100588.16;;;13.19;100.00
74372;BME280;62885;51.374;6.170;2023-05-10T05:30:22;100596.78;;;13.12;100.00
74372;BME280;62885;51.374;6.170;2023-05-10T05:32:47;100599.00;;;13.07;100.00
74372;BME280;62885;51.374;6.170;2023-05-10T05:35:13;100602.25;;;13.11;100.00
74372;BME280;62885;51.374;6.170;2023-05-10T05:37:38;100604.94;;;13.11;100.00
74372;BME280;62885;51.374;6.170;2023-05-10T05:40:04;100598.13;;;13.07;100.00
74372;BME280;62885;51.374;6.170;2023-05-10T05:42:30;100604.38;;;13.07;100.00
74372;BME280;62885;51.374;6.170;2023-05-10T05:44:56;100603.84;;;13.13;100.00
74372;BME280;62885;51.374;6.170;2023-05-10T05:47:21;100602.59;;;13.18;100.00
74372;BME280;62885;51.374;6.170;2023-05-10T05:49:46;100610.66;;;13.18;100.00
74372;BME280;62885;51.374;6.170;2023-05-10T05:52:12;100603.84;;;13.13;100.00
74372;BME280;62885;51.374;6.170;2023-05-10T05:54:37;100608.94;;;13.16;100.00
74372;BME280;62885;51.374;6.170;2023-05-10T05:57:03;100614.47;;;13.15;100.00
74372;BME280;62885;51.374;6.170;2023-05-10T05:59:28;100621.41;;;13.18;100.00
74372;BME280;62885;51.374;6.170;2023-05-10T06:01:54;100624.81;;;13.20;100.00
74372;BME280;62885;51.374;6.170;2023-05-10T06:04:19;100634.06;;;13.27;100.00
74372;BME280;62885;51.374;6.170;2023-05-10T06:06:45;100624.59;;;13.32;100.00
74372;BME280;62885;51.374;6.170;2023-05-10T06:09:10;100630.28;;;13.39;100.00
74372;BME280;62885;51.374;6.170;2023-05-10T06:11:36;100634.38;;;13.33;100.00
74372;BME280;62885;51.374;6.170;2023-05-10T06:14:02;100631.50;;;13.25;100.00
74372;BME280;62885;51.374;6.170;2023-05-10T06:16:29;100640.97;;;13.29;100.00
74372;BME280;62885;51.374;6.170;2023-05-10T06:18:55;100637.88;;;13.34;100.00
74372;BME280;62885;51.374;6.170;2023-05-10T06:21:20;100645.13;;;13.33;100.00
74372;BME280;62885;51.374;6.170;2023-05-10T06:23:46;100648.09;;;13.40;100.00
74372;BME280;62885;51.374;6.170;2023-05-10T06:26:11;100646.41;;;13.39;100.00
74372;BME280;62885;51.374;6.170;2023-05-10T06:28:38;100650.50;;;13.33;100.00
74372;BME280;62885;51.374;6.170;2023-05-10T06:31:04;100652.19;;;13.34;100.00
74372;BME280;62885;51.374;6.170;2023-05-10T06:33:30;100656.25;;;13.29;100.00
74372;BME280;62885;51.374;6.170;2023-05-10T06:35:56;100648.91;;;13.31;100.00
74372;BME280;62885;51.374;6.170;2023-05-10T06:38:22;100655.41;;;13.28;100.00
74372;BME280;62885;51.374;6.170;2023-05-10T06:40:47;100655.16;;;13.31;100.00
74372;BME280;62885;51.374;6.170;2023-05-10T06:43:13;100656.00;;;13.32;100.00
74372;BME280;62885;51.374;6.170;2023-05-10T06:45:38;100653.19;;;13.33;100.00
74372;BME280;62885;51.374;6.170;2023-05-10T06:48:04;100660.66;;;13.30;100.00
74372;BME280;62885;51.374;6.170;2023-05-10T06:50:29;100657.97;;;13.30;100.00
74372;BME280;62885;51.374;6.170;2023-05-10T06:52:55;100656.88;;;13.32;100.00
74372;BME280;62885;51.374;6.170;2023-05-10T06:55:20;100655.56;;;13.27;100.00
74372;BME280;62885;51.374;6.170;2023-05-10T06:57:46;100672.25;;;13.30;100.00
74372;BME280;62885;51.374;6.170;2023-05-10T07:00:13;100671.41;;;13.30;100.00
74372;BME280;62885;51.374;6.170;2023-05-10T07:02:38;100670.97;;;13.25;100.00
74372;BME280;62885;51.374;6.170;2023-05-10T07:05:04;100673.13;;;13.31;100.00
74372;BME280;62885;51.374;6.170;2023-05-10T07:07:30;100677.53;;;13.41;100.00
74372;BME280;62885;51.374;6.170;2023-05-10T07:09:56;100681.50;;;13.37;100.00
74372;BME280;62885;51.374;6.170;2023-05-10T07:12:22;100679.13;;;13.44;100.00
74372;BME280;62885;51.374;6.170;2023-05-10T07:14:48;100681.53;;;13.47;100.00
74372;BME280;62885;51.374;6.170;2023-05-10T07:17:13;100681.84;;;13.53;100.00
74372;BME280;62885;51.374;6.170;2023-05-10T07:19:39;100683.13;;;13.59;100.00
74372;BME280;62885;51.374;6.170;2023-05-10T07:22:04;100683.88;;;13.71;100.00
74372;BME280;62885;51.374;6.170;2023-05-10T07:24:29;100684.91;;;13.79;100.00
74372;BME280;62885;51.374;6.170;2023-05-10T07:26:56;100689.16;;;13.82;100.00
74372;BME280;62885;51.374;6.170;2023-05-10T07:29:21;100691.28;;;13.88;99.75
74372;BME280;62885;51.374;6.170;2023-05-10T07:31:47;100692.72;;;13.92;98.41
74372;BME280;62885;51.374;6.170;2023-05-10T07:34:12;100687.47;;;13.90;98.15
74372;BME280;62885;51.374;6.170;2023-05-10T07:36:37;100693.31;;;14.05;96.58
74372;BME280;62885;51.374;6.170;2023-05-10T07:39:03;100685.81;;;14.18;96.24
74372;BME280;62885;51.374;6.170;2023-05-10T07:41:29;100700.56;;;14.14;95.80
74372;BME280;62885;51.374;6.170;2023-05-10T07:43:54;100691.59;;;14.04;96.04
74372;BME280;62885;51.374;6.170;2023-05-10T07:46:19;100696.72;;;14.17;96.06
74372;BME280;62885;51.374;6.170;2023-05-10T07:48:45;100713.72;;;14.17;96.01
74372;BME280;62885;51.374;6.170;2023-05-10T07:51:11;100706.09;;;14.22;95.58
74372;BME280;62885;51.374;6.170;2023-05-10T07:53:37;100713.47;;;14.20;95.85
74372;BME280;62885;51.374;6.170;2023-05-10T07:58:45;100707.63;;;14.15;94.41
74372;BME280;62885;51.374;6.170;2023-05-10T08:01:10;100697.16;;;14.03;94.52
74372;BME280;62885;51.374;6.170;2023-05-10T08:03:36;100704.50;;;14.01;94.80
74372;BME280;62885;51.374;6.170;2023-05-10T08:06:01;100715.44;;;14.09;94.50
74372;BME280;62885;51.374;6.170;2023-05-10T08:08:27;100723.91;;;14.04;95.18
74372;BME280;62885;51.374;6.170;2023-05-10T08:10:52;100713.56;;;13.99;95.06
74372;BME280;62885;51.374;6.170;2023-05-10T08:13:18;100711.28;;;13.95;95.14
74372;BME280;62885;51.374;6.170;2023-05-10T08:15:43;100727.31;;;13.96;96.22
74372;BME280;62885;51.374;6.170;2023-05-10T08:18:08;100732.84;;;14.05;96.71
74372;BME280;62885;51.374;6.170;2023-05-10T08:20:34;100735.94;;;14.00;96.01
74372;BME280;62885;51.374;6.170;2023-05-10T08:22:59;100737.91;;;13.98;95.68
74372;BME280;62885;51.374;6.170;2023-05-10T08:25:25;100738.31;;;13.84;96.76
74372;BME280;62885;51.374;6.170;2023-05-10T08:27:50;100740.56;;;13.79;96.97
74372;BME280;62885;51.374;6.170;2023-05-10T08:30:16;100752.63;;;13.84;97.14
74372;BME280;62885;51.374;6.170;2023-05-10T08:32:41;100744.25;;;13.78;97.51
74372;BME280;62885;51.374;6.170;2023-05-10T08:35:07;100744.97;;;13.80;97.48
74372;BME280;62885;51.374;6.170;2023-05-10T08:37:32;100750.50;;;13.88;97.99
74372;BME280;62885;51.374;6.170;2023-05-10T08:39:58;100753.63;;;13.93;97.92
74372;BME280;62885;51.374;6.170;2023-05-10T08:42:25;100758.88;;;13.94;97.23
74372;BME280;62885;51.374;6.170;2023-05-10T08:44:53;100756.63;;;13.99;97.73
74372;BME280;62885;51.374;6.170;2023-05-10T08:47:20;100758.66;;;14.07;97.33
74372;BME280;62885;51.374;6.170;2023-05-10T08:49:47;100756.81;;;14.08;96.74
74372;BME280;62885;51.374;6.170;2023-05-10T08:52:15;100756.25;;;14.23;95.59
74372;BME280;62885;51.374;6.170;2023-05-10T08:54:42;100755.09;;;14.16;96.11
74372;BME280;62885;51.374;6.170;2023-05-10T08:57:07;100767.88;;;14.24;95.79
74372;BME280;62885;51.374;6.170;2023-05-10T08:59:33;100762.50;;;14.14;95.51
74372;BME280;62885;51.374;6.170;2023-05-10T09:01:59;100765.06;;;14.25;95.01
74372;BME280;62885;51.374;6.170;2023-05-10T09:04:25;100770.59;;;14.24;94.86
74372;BME280;62885;51.374;6.170;2023-05-10T09:06:51;100773.41;;;14.22;94.31
74372;BME280;62885;51.374;6.170;2023-05-10T09:09:17;100772.84;;;14.28;94.45
74372;BME280;62885;51.374;6.170;2023-05-10T09:11:43;100761.91;;;14.11;94.50
74372;BME280;62885;51.374;6.170;2023-05-10T09:14:10;100776.25;;;14.21;94.53
74372;BME280;62885;51.374;6.170;2023-05-10T09:16:37;100782.03;;;14.16;94.81
74372;BME280;62885;51.374;6.170;2023-05-10T09:19:02;100785.44;;;14.18;95.32
74372;BME280;62885;51.374;6.170;2023-05-10T09:21:28;100781.78;;;14.19;95.00
74372;BME280;62885;51.374;6.170;2023-05-10T09:23:54;100773.41;;;14.22;95.78
74372;BME280;62885;51.374;6.170;2023-05-10T09:26:23;100795.66;;;14.15;95.70
74372;BME280;62885;51.374;6.170;2023-05-10T09:28:52;100793.34;;;14.01;96.26
74372;BME280;62885;51.374;6.170;2023-05-10T09:31:18;100801.41;;;14.01;94.95
74372;BME280;62885;51.374;6.170;2023-05-10T09:33:45;100802.06;;;13.93;94.57
74372;BME280;62885;51.374;6.170;2023-05-10T09:36:11;100799.06;;;13.86;95.38
74372;BME280;62885;51.374;6.170;2023-05-10T09:38:50;100809.59;;;13.89;95.38
74372;BME280;62885;51.374;6.170;2023-05-10T09:41:23;100801.75;;;13.86;95.40
74372;BME280;62885;51.374;6.170;2023-05-10T09:43:49;100802.81;;;13.95;96.04
74372;BME280;62885;51.374;6.170;2023-05-10T09:46:15;100813.16;;;13.99;95.79
74372;BME280;62885;51.374;6.170;2023-05-10T09:48:46;100813.44;;;13.96;95.57
74372;BME280;62885;51.374;6.170;2023-05-10T09:51:23;100804.00;;;14.12;95.67
74372;BME280;62885;51.374;6.170;2023-05-10T09:54:09;100814.22;;;14.18;94.58
74372;BME280;62885;51.374;6.170;2023-05-10T09:56:36;100823.16;;;14.18;94.29
74372;BME280;62885;51.374;6.170;2023-05-10T09:59:04;100817.34;;;14.23;94.96
74372;BME280;62885;51.374;6.170;2023-05-10T10:01:30;100819.63;;;14.27;94.92
74372;BME280;62885;51.374;6.170;2023-05-10T10:03:56;100822.44;;;14.16;94.60
74372;BME280;62885;51.374;6.170;2023-05-10T10:06:23;100827.25;;;14.13;95.10
74372;BME280;62885;51.374;6.170;2023-05-10T10:08:49;100828.75;;;13.96;96.39
74372;BME280;62885;51.374;6.170;2023-05-10T10:11:15;100828.13;;;13.92;97.29
74372;BME280;62885;51.374;6.170;2023-05-10T10:13:41;100831.13;;;13.89;98.01
74372;BME280;62885;51.374;6.170;2023-05-10T10:16:08;100833.63;;;13.81;99.53
74372;BME280;62885;51.374;6.170;2023-05-10T10:18:35;100833.09;;;13.87;99.14
74372;BME280;62885;51.374;6.170;2023-05-10T10:21:05;100830.38;;;13.87;99.28
74372;BME280;62885;51.374;6.170;2023-05-10T10:23:30;100830.22;;;13.79;98.66
74372;BME280;62885;51.374;6.170;2023-05-10T10:25:56;100828.69;;;13.86;97.52
74372;BME280;62885;51.374;6.170;2023-05-10T10:29:30;100835.09;;;13.95;97.60
74372;BME280;62885;51.374;6.170;2023-05-10T10:31:39;100824.59;;;13.92;97.61
74372;BME280;62885;51.374;6.170;2023-05-10T10:34:07;100830.72;;;14.04;96.83
74372;BME280;62885;51.374;6.170;2023-05-10T10:36:40;100835.75;;;14.08;96.86
74372;BME280;62885;51.374;6.170;2023-05-10T10:39:10;100831.78;;;14.12;96.85
74372;BME280;62885;51.374;6.170;2023-05-10T10:41:38;100828.09;;;14.13;96.31
74372;BME280;62885;51.374;6.170;2023-05-10T10:55:20;100840.09;;;14.39;93.04
74372;BME280;62885;51.374;6.170;2023-05-10T10:57:52;100829.19;;;14.41;92.25
74372;BME280;62885;51.374;6.170;2023-05-10T11:03:05;100841.69;;;14.52;89.94
74372;BME280;62885;51.374;6.170;2023-05-10T11:05:37;100844.00;;;14.66;89.06
74372;BME280;62885;51.374;6.170;2023-05-10T11:08:28;100848.53;;;14.75;89.22
74372;BME280;62885;51.374;6.170;2023-05-10T11:13:33;100842.19;;;14.95;87.52
74372;BME280;62885;51.374;6.170;2023-05-10T11:16:10;100837.66;;;15.05;86.69
74372;BME280;62885;51.374;6.170;2023-05-10T11:18:36;100844.88;;;15.05;86.05
74372;BME280;62885;51.374;6.170;2023-05-10T11:21:04;100838.50;;;15.06;85.36
74372;BME280;62885;51.374;6.170;2023-05-10T11:26:08;100841.03;;;15.27;85.74
74372;BME280;62885;51.374;6.170;2023-05-10T11:28:36;100843.44;;;15.49;85.28
74372;BME280;62885;51.374;6.170;2023-05-10T11:31:06;100842.41;;;15.69;84.49
74372;BME280;62885;51.374;6.170;2023-05-10T11:33:51;100841.97;;;15.83;84.99
74372;BME280;62885;51.374;6.170;2023-05-10T11:36:19;100845.47;;;15.93;83.53
74372;BME280;62885;51.374;6.170;2023-05-10T11:38:45;100842.78;;;15.93;83.04
74372;BME280;62885;51.374;6.170;2023-05-10T11:41:12;100842.00;;;16.11;82.67
74372;BME280;62885;51.374;6.170;2023-05-10T11:43:41;100849.56;;;16.07;83.06
74372;BME280;62885;51.374;6.170;2023-05-10T11:46:09;100842.00;;;16.11;82.76
74372;BME280;62885;51.374;6.170;2023-05-10T11:48:35;100845.63;;;16.19;82.21
74372;BME280;62885;51.374;6.170;2023-05-10T11:51:01;100843.25;;;16.16;81.56
74372;BME280;62885;51.374;6.170;2023-05-10T11:53:31;100847.50;;;16.19;82.35
74372;BME280;62885;51.374;6.170;2023-05-10T11:56:03;100844.09;;;16.17;81.09
74372;BME280;62885;51.374;6.170;2023-05-10T11:58:28;100841.50;;;16.25;81.76
74372;BME280;62885;51.374;6.170;2023-05-10T12:00:54;100841.78;;;16.22;81.56
74372;BME280;62885;51.374;6.170;2023-05-10T12:03:19;100840.59;;;16.34;81.86
74372;BME280;62885;51.374;6.170;2023-05-10T12:05:45;100841.66;;;16.23;81.91
74372;BME280;62885;51.374;6.170;2023-05-10T12:08:15;100842.00;;;16.11;81.27
74372;BME280;62885;51.374;6.170;2023-05-10T12:10:40;100848.97;;;16.40;80.10
74372;BME280;62885;51.374;6.170;2023-05-10T12:13:12;100845.16;;;16.33;79.49
74372;BME280;62885;51.374;6.170;2023-05-10T12:15:39;100842.00;;;16.38;79.62
74372;BME280;62885;51.374;6.170;2023-05-10T12:18:05;100841.84;;;16.67;78.89
74372;BME280;62885;51.374;6.170;2023-05-10T12:20:31;100847.84;;;16.88;77.62
74372;BME280;62885;51.374;6.170;2023-05-10T12:22:58;100850.34;;;16.90;76.45
74372;BME280;62885;51.374;6.170;2023-05-10T12:25:29;100846.13;;;17.05;75.77
74372;BME280;62885;51.374;6.170;2023-05-10T12:27:57;100842.03;;;16.65;76.67
74372;BME280;62885;51.374;6.170;2023-05-10T12:30:27;100840.69;;;16.69;77.80
74372;BME280;62885;51.374;6.170;2023-05-10T12:32:53;100844.94;;;16.72;78.17
74372;BME280;62885;51.374;6.170;2023-05-10T12:35:19;100852.97;;;16.64;77.49
74372;BME280;62885;51.374;6.170;2023-05-10T12:37:50;100845.88;;;16.63;78.69
74372;BME280;62885;51.374;6.170;2023-05-10T12:40:16;100847.03;;;16.78;77.77
74372;BME280;62885;51.374;6.170;2023-05-10T12:42:41;100851.16;;;16.82;77.92
74372;BME280;62885;51.374;6.170;2023-05-10T12:45:08;100856.91;;;16.69;78.61
74372;BME280;62885;51.374;6.170;2023-05-10T12:47:34;100851.38;;;16.71;77.67
74372;BME280;62885;51.374;6.170;2023-05-10T12:50:00;100858.53;;;16.62;79.49
74372;BME280;62885;51.374;6.170;2023-05-10T12:52:26;100859.84;;;16.49;79.05
74372;BME280;62885;51.374;6.170;2023-05-10T12:54:52;100852.41;;;16.60;78.66
74372;BME280;62885;51.374;6.170;2023-05-10T12:57:19;100857.56;;;16.81;77.24
74372;BME280;62885;51.374;6.170;2023-05-10T12:59:45;100851.59;;;16.95;77.09
74372;BME280;62885;51.374;6.170;2023-05-10T13:02:10;100858.88;;;17.12;76.82
74372;BME280;62885;51.374;6.170;2023-05-10T13:04:36;100864.50;;;17.01;77.28
74372;BME280;62885;51.374;6.170;2023-05-10T13:07:07;100868.91;;;17.02;76.37
74372;BME280;62885;51.374;6.170;2023-05-10T13:09:32;100865.59;;;16.91;76.72
74372;BME280;62885;51.374;6.170;2023-05-10T13:11:58;100861.41;;;16.78;77.61
74372;BME280;62885;51.374;6.170;2023-05-10T13:14:24;100867.00;;;16.77;77.10
74372;BME280;62885;51.374;6.170;2023-05-10T13:16:49;100867.91;;;16.58;76.81
74372;BME280;62885;51.374;6.170;2023-05-10T13:19:16;100870.13;;;16.72;76.32